地図

経路データ

SID SEASON NUMBER BASIN SUBBASIN NAME ISO_TIME NATURE LAT LON WMO_WIND WMO_PRES WMO_AGENCY TRACK_TYPE DIST2LAND LANDFALL IFLAG USA_AGENCY USA_ATCF_ID USA_LAT USA_LON USA_RECORD USA_STATUS USA_WIND USA_PRES USA_SSHS USA_R34_NE USA_R34_SE USA_R34_SW USA_R34_NW USA_R50_NE USA_R50_SE USA_R50_SW USA_R50_NW USA_R64_NE USA_R64_SE USA_R64_SW USA_R64_NW USA_POCI USA_ROCI USA_RMW USA_EYE TOKYO_LAT TOKYO_LON TOKYO_GRADE TOKYO_WIND TOKYO_PRES TOKYO_R50_DIR TOKYO_R50_LONG TOKYO_R50_SHORT TOKYO_R30_DIR TOKYO_R30_LONG TOKYO_R30_SHORT TOKYO_LAND CMA_LAT CMA_LON CMA_CAT CMA_WIND CMA_PRES HKO_LAT HKO_LON HKO_CAT HKO_WIND HKO_PRES NEWDELHI_LAT NEWDELHI_LON NEWDELHI_GRADE NEWDELHI_WIND NEWDELHI_PRES NEWDELHI_CI NEWDELHI_DP NEWDELHI_POCI REUNION_LAT REUNION_LON REUNION_TYPE REUNION_WIND REUNION_PRES REUNION_TNUM REUNION_CI REUNION_RMW REUNION_R34_NE REUNION_R34_SE REUNION_R34_SW REUNION_R34_NW REUNION_R50_NE REUNION_R50_SE REUNION_R50_SW REUNION_R50_NW REUNION_R64_NE REUNION_R64_SE REUNION_R64_SW REUNION_R64_NW BOM_LAT BOM_LON BOM_TYPE BOM_WIND BOM_PRES BOM_TNUM BOM_CI BOM_RMW BOM_R34_NE BOM_R34_SE BOM_R34_SW BOM_R34_NW BOM_R50_NE BOM_R50_SE BOM_R50_SW BOM_R50_NW BOM_R64_NE BOM_R64_SE BOM_R64_SW BOM_R64_NW BOM_ROCI BOM_POCI BOM_EYE BOM_POS_METHOD BOM_PRES_METHOD NADI_LAT NADI_LON NADI_CAT NADI_WIND NADI_PRES WELLINGTON_LAT WELLINGTON_LON WELLINGTON_WIND WELLINGTON_PRES DS824_LAT DS824_LON DS824_STAGE DS824_WIND DS824_PRES TD9636_LAT TD9636_LON TD9636_STAGE TD9636_WIND TD9636_PRES TD9635_LAT TD9635_LON TD9635_WIND TD9635_PRES TD9635_ROCI NEUMANN_LAT NEUMANN_LON NEUMANN_CLASS NEUMANN_WIND NEUMANN_PRES MLC_LAT MLC_LON MLC_CLASS MLC_WIND MLC_PRES USA_GUST BOM_GUST BOM_GUST_PER REUNION_GUST REUNION_GUST_PER USA_SEAHGT USA_SEARAD_NE USA_SEARAD_SE USA_SEARAD_SW USA_SEARAD_NW STORM_SPEED STORM_DIR
1880257N19089 1880 20 NI BB NOT_NAMED 1880-09-13 00:00:00 TS 18.7000 88.5000 main 260 238 _________O____ -1 18.7000 88.5000 TC 30 5 276
1880257N19089 1880 20 NI BB NOT_NAMED 1880-09-13 03:00:00 TS 18.7268 88.2234 main 238 206 _________PO___ -1 18.7403 88.0850 TC 30 18.7000 88.5000 1 6 278
1880257N19089 1880 20 NI BB NOT_NAMED 1880-09-13 06:00:00 TS 18.7876 87.8763 main 206 175 _________OP___ -1 18.8000 87.7000 TC 30 18.7691 88.1407 1 7 282
1880257N19089 1880 20 NI BB NOT_NAMED 1880-09-13 09:00:00 TS 18.8700 87.5364 main 168 139 _________PP___ -1 18.8923 87.3575 TC 30 18.8403 87.7751 1 7 285
1880257N19089 1880 20 NI BB NOT_NAMED 1880-09-13 12:00:00 TS 18.9582 87.1984 main 139 119 _________OP___ -1 19.0000 87.0000 TC 30 18.9164 87.3969 1 7 284
1880257N19089 1880 20 NI BB NOT_NAMED 1880-09-13 15:00:00 TS 19.0500 86.7787 main 109 94 _________PO___ -1 19.1000 86.5575 TC 30 19.0000 87.0000 1 8 283
1880257N19089 1880 20 NI BB NOT_NAMED 1880-09-13 18:00:00 TS 19.1464 86.3406 main 91 67 _________OP___ -1 19.2000 86.1000 TC 30 19.0928 86.5813 1 8 284
1880257N19089 1880 20 NI BB NOT_NAMED 1880-09-13 21:00:00 TS 19.2462 85.9212 main 67 35 _________PP___ -1 19.2999 85.6924 TC 30 19.1925 86.1500 1 8 284
1880257N19089 1880 20 NI BB NOT_NAMED 1880-09-14 00:00:00 TS 19.3480 85.5094 main 35 10 _________OP___ -1 19.4000 85.3000 TC 30 19.2959 85.7187 1 8 285
1880257N19089 1880 20 NI BB NOT_NAMED 1880-09-14 03:00:00 TS 19.4500 85.0962 main 10 0 _________PO___ -1 19.5000 84.8925 TC 30 19.4000 85.3000 1 8 285
1880257N19089 1880 20 NI BB NOT_NAMED 1880-09-14 06:00:00 TS 19.5478 84.7052 main 0 0 _________OP___ -1 19.6000 84.5000 TC 30 19.4955 84.9104 1 7 285
1880257N19089 1880 20 NI BB NOT_NAMED 1880-09-14 09:00:00 TS 19.6459 84.3423 main 0 0 _________PP___ -1 19.6998 84.1499 TC 30 19.5920 84.5347 1 7 286
1880257N19089 1880 20 NI BB NOT_NAMED 1880-09-14 12:00:00 TS 19.7462 83.9833 main 0 0 _________OP___ -1 19.8000 83.8000 TC 30 19.6925 84.1666 1 7 286
1880257N19089 1880 20 NI BB NOT_NAMED 1880-09-14 15:00:00 TS 19.8463 83.6000 main 0 0 _________PO___ -1 19.8925 83.3999 TC 30 19.8000 83.8000 1 7 285
1880257N19089 1880 20 NI BB NOT_NAMED 1880-09-14 18:00:00 TS 19.9445 83.2182 main 0 0 _________OP___ -1 20.0000 83.0000 TC 30 19.8890 83.4365 1 7 287
1880257N19089 1880 20 NI BB NOT_NAMED 1880-09-14 21:00:00 TS 20.0583 82.8643 main 0 0 _________PP___ -1 20.1273 82.6573 TC 30 19.9894 83.0713 1 7 291
1880257N19089 1880 20 NI BB NOT_NAMED 1880-09-15 00:00:00 TS 20.2101 82.4978 main 0 0 _________OP___ -1 20.3000 82.3000 TC 30 20.1202 82.6956 1 8 296
1880257N19089 1880 20 NI BB NOT_NAMED 1880-09-15 03:00:00 TS 20.4100 82.0824 main 0 0 _________PO___ -1 20.5200 81.8649 TC 30 20.3000 82.3000 1 9 300
1880257N19089 1880 20 NI BB NOT_NAMED 1880-09-15 06:00:00 TS 20.6749 81.6299 main 0 0 _________OP___ -1 20.8000 81.4000 TC 30 20.5498 81.8598 1 10 304
1880257N19089 1880 20 NI BB NOT_NAMED 1880-09-15 09:00:00 TS 20.9951 81.1678 main 0 0 _________PP___ -1 21.1425 80.9351 TC 30 20.8477 81.4006 1 11 308
1880257N19089 1880 20 NI BB NOT_NAMED 1880-09-15 12:00:00 TS 21.3359 80.7205 main 0 0 _________OP___ -1 21.5000 80.5000 TC 30 21.1717 80.9410 1 10 310
1880257N19089 1880 20 NI BB NOT_NAMED 1880-09-15 15:00:00 TS 21.6536 80.3211 main 0 0 _________PO___ -1 21.8073 80.1422 TC 30 21.5000 80.5000 1 9 311
1880257N19089 1880 20 NI BB NOT_NAMED 1880-09-15 18:00:00 TS 21.9538 79.9535 main 0 0 _________OP___ -1 22.1000 79.8000 TC 30 21.8075 80.1069 1 9 311
1880257N19089 1880 20 NI BB NOT_NAMED 1880-09-15 21:00:00 TS 22.2608 79.5709 main 0 0 _________PP___ -1 22.4075 79.4074 TC 30 22.1142 79.7343 1 9 310
1880257N19089 1880 20 NI BB NOT_NAMED 1880-09-16 00:00:00 TS 22.5569 79.1847 main 0 0 _________OP___ -1 22.7000 79.0000 TC 30 22.4138 79.3695 1 9 309
1880257N19089 1880 20 NI BB NOT_NAMED 1880-09-16 03:00:00 TS 22.8287 78.7999 main 0 0 _________PO___ -1 22.9574 78.5998 TC 30 22.7000 79.0000 1 9 306
1880257N19089 1880 20 NI BB NOT_NAMED 1880-09-16 06:00:00 TS 23.0781 78.3992 main 0 0 _________OP___ -1 23.2000 78.2000 TC 30 22.9562 78.5984 1 9 304
1880257N19089 1880 20 NI AS NOT_NAMED 1880-09-16 09:00:00 TS 23.3249 77.9958 main 0 0 _________PP___ -1 23.4499 77.7999 TC 30 23.1999 78.1917 1 9 304
1880257N19089 1880 20 NI AS NOT_NAMED 1880-09-16 12:00:00 TS 23.5718 77.5945 main 0 0 _________OP___ -1 23.7000 77.4000 TC 30 23.4437 77.7891 1 9 304
1880257N19089 1880 20 NI AS NOT_NAMED 1880-09-16 15:00:00 TS 23.8175 77.1924 main 0 0 _________PO___ -1 23.9350 76.9848 TC 30 23.7000 77.4000 1 9 305
1880257N19089 1880 20 NI AS NOT_NAMED 1880-09-16 18:00:00 TS 24.0869 76.7796 main 0 0 _________OP___ -1 24.2000 76.6000 TC 30 23.9737 76.9593 1 9 308
1880257N19089 1880 20 NI AS NOT_NAMED 1880-09-16 21:00:00 TS 24.3952 76.3921 main 0 0 _________PP___ -1 24.5275 76.2402 TC 30 24.2630 76.5440 1 9 316
1880257N19089 1880 20 NI AS NOT_NAMED 1880-09-17 00:00:00 TS 24.7353 76.1033 main 0 0 _________OP___ -1 24.9000 76.0000 TC 30 24.5706 76.2066 1 8 331
1880257N19089 1880 20 NI AS NOT_NAMED 1880-09-17 03:00:00 TS 25.0999 75.9587 main 0 0 _________PO___ -1 25.2998 75.9174 TC 30 24.9000 76.0000 1 8 351
1880257N19089 1880 20 NI AS NOT_NAMED 1880-09-17 06:00:00 TS 25.4926 75.9733 main 0 0 _________OP___ -1 25.7000 76.0000 TC 30 25.2851 75.9466 1 8 10
1880257N19089 1880 20 NI AS NOT_NAMED 1880-09-17 09:00:00 TS 25.8795 76.1141 main 0 0 _________PP___ -1 26.0725 76.1973 TC 30 25.6865 76.0309 1 8 25
1880257N19089 1880 20 NI AS NOT_NAMED 1880-09-17 12:00:00 TS 26.2348 76.3625 main 0 0 _________OP___ -1 26.4000 76.5000 TC 30 26.0696 76.2249 1 8 37
1880257N19089 1880 20 NI AS NOT_NAMED 1880-09-17 15:00:00 TS 26.5437 76.6637 main 0 0 _________PO___ -1 26.6874 76.8275 TC 30 26.4000 76.5000 1 8 47
1880257N19089 1880 20 NI AS NOT_NAMED 1880-09-17 18:00:00 TS 26.7585 76.9883 main 0 0 _________OP___ -1 26.9000 77.2000 TC 30 26.6524 76.8295 1 7 59
1880257N19089 1880 20 NI AS NOT_NAMED 1880-09-17 21:00:00 TS 26.9134 77.3567 main 0 0 _________PP___ -1 27.0252 77.5950 TC 30 26.8389 77.1979 1 7 68
1880257N19089 1880 20 NI AS NOT_NAMED 1880-09-18 00:00:00 TS 27.0206 77.7282 main 0 0 _________OP___ -1 27.1000 78.0000 TC 30 26.9809 77.5923 1 6 72
1880257N19089 1880 20 NI AS NOT_NAMED 1880-09-18 03:00:00 NR 27.1000 78.0000 main 0 __________O___ -1 TC 27.1000 78.0000 1 5 72

IBTrACS Databaseについて

本データベースは、米国NOAAが公開する1842年以降の世界の熱帯低気圧のベストトラックデータアーカイブInternational Best Track Archive for Climate Stewardship (IBTrACS)を、ウェブで閲覧しやすい形式に変換したものです。

最終更新日:2021-10-21